sensor_id;sensor_type;location;lat;lon;timestamp;temperature;humidity
67165;SHT31;54093;50.014;19.984;2023-04-09T00:04:15;4.56;82.91
67165;SHT31;54093;50.014;19.984;2023-04-09T00:13:36;4.55;82.94
67165;SHT31;54093;50.014;19.984;2023-04-09T00:22:57;4.56;82.13
67165;SHT31;54093;50.014;19.984;2023-04-09T00:32:18;4.45;82.62
67165;SHT31;54093;50.014;19.984;2023-04-09T00:41:39;4.37;83.53
67165;SHT31;54093;50.014;19.984;2023-04-09T00:51:01;4.39;84.41
67165;SHT31;54093;50.014;19.984;2023-04-09T01:00:22;4.38;84.42
67165;SHT31;54093;50.014;19.984;2023-04-09T01:09:50;4.25;84.48
67165;SHT31;54093;50.014;19.984;2023-04-09T01:19:50;4.25;84.45
67165;SHT31;54093;50.014;19.984;2023-04-09T01:29:14;4.18;84.66
67165;SHT31;54093;50.014;19.984;2023-04-09T01:38:40;4.18;84.46
67165;SHT31;54093;50.014;19.984;2023-04-09T01:48:02;4.27;84.19
67165;SHT31;54093;50.014;19.984;2023-04-09T01:57:23;4.28;84.03
67165;SHT31;54093;50.014;19.984;2023-04-09T02:16:16;4.31;83.86
67165;SHT31;54093;50.014;19.984;2023-04-09T02:25:37;4.24;84.04
67165;SHT31;54093;50.014;19.984;2023-04-09T02:34:58;4.28;83.65
67165;SHT31;54093;50.014;19.984;2023-04-09T02:44:18;4.22;83.96
67165;SHT31;54093;50.014;19.984;2023-04-09T02:53:39;4.27;83.92
67165;SHT31;54093;50.014;19.984;2023-04-09T03:03:00;4.32;83.80
67165;SHT31;54093;50.014;19.984;2023-04-09T03:12:22;4.31;84.04
67165;SHT31;54093;50.014;19.984;2023-04-09T03:21:43;4.34;84.01
67165;SHT31;54093;50.014;19.984;2023-04-09T03:31:04;4.32;84.16
67165;SHT31;54093;50.014;19.984;2023-04-09T03:40:25;4.34;84.13
67165;SHT31;54093;50.014;19.984;2023-04-09T03:49:46;4.32;84.61
67165;SHT31;54093;50.014;19.984;2023-04-09T03:59:07;4.29;84.73
67165;SHT31;54093;50.014;19.984;2023-04-09T04:08:28;4.35;84.51
67165;SHT31;54093;50.014;19.984;2023-04-09T04:17:49;4.37;84.50
67165;SHT31;54093;50.014;19.984;2023-04-09T04:27:10;4.41;84.60
67165;SHT31;54093;50.014;19.984;2023-04-09T04:36:31;4.49;84.70
67165;SHT31;54093;50.014;19.984;2023-04-09T04:45:52;4.53;84.61
67165;SHT31;54093;50.014;19.984;2023-04-09T04:55:13;4.59;84.68
67165;SHT31;54093;50.014;19.984;2023-04-09T05:04:34;4.75;84.07
67165;SHT31;54093;50.014;19.984;2023-04-09T05:13:56;4.75;84.07
67165;SHT31;54093;50.014;19.984;2023-04-09T05:23:17;4.76;84.25
67165;SHT31;54093;50.014;19.984;2023-04-09T05:32:37;4.80;84.24
67165;SHT31;54093;50.014;19.984;2023-04-09T05:41:58;4.89;83.73
67165;SHT31;54093;50.014;19.984;2023-04-09T05:51:19;4.93;83.87
67165;SHT31;54093;50.014;19.984;2023-04-09T06:00:41;5.03;83.68
67165;SHT31;54093;50.014;19.984;2023-04-09T06:10:01;5.20;83.92
67165;SHT31;54093;50.014;19.984;2023-04-09T06:19:24;5.42;83.02
67165;SHT31;54093;50.014;19.984;2023-04-09T06:28:45;5.63;81.99
67165;SHT31;54093;50.014;19.984;2023-04-09T06:38:06;5.76;80.70
67165;SHT31;54093;50.014;19.984;2023-04-09T06:47:27;5.90;81.20
67165;SHT31;54093;50.014;19.984;2023-04-09T06:56:48;6.13;80.95
67165;SHT31;54093;50.014;19.984;2023-04-09T07:06:09;6.41;80.25
67165;SHT31;54093;50.014;19.984;2023-04-09T07:15:30;6.59;80.43
67165;SHT31;54093;50.014;19.984;2023-04-09T07:24:51;6.99;79.23
67165;SHT31;54093;50.014;19.984;2023-04-09T07:34:15;7.50;78.68
67165;SHT31;54093;50.014;19.984;2023-04-09T07:43:36;7.95;75.62
67165;SHT31;54093;50.014;19.984;2023-04-09T07:52:58;8.23;74.96
67165;SHT31;54093;50.014;19.984;2023-04-09T08:02:19;8.53;73.07
67165;SHT31;54093;50.014;19.984;2023-04-09T08:11:40;9.36;75.60
67165;SHT31;54093;50.014;19.984;2023-04-09T08:21:03;10.59;71.14
67165;SHT31;54093;50.014;19.984;2023-04-09T08:30:25;11.76;64.28
67165;SHT31;54093;50.014;19.984;2023-04-09T08:39:46;13.02;59.81
67165;SHT31;54093;50.014;19.984;2023-04-09T08:49:07;11.94;58.79
67165;SHT31;54093;50.014;19.984;2023-04-09T08:58:29;11.87;64.75
67165;SHT31;54093;50.014;19.984;2023-04-09T09:07:53;13.07;58.54
67165;SHT31;54093;50.014;19.984;2023-04-09T09:17:14;13.05;63.40
67165;SHT31;54093;50.014;19.984;2023-04-09T09:26:37;12.81;62.50
67165;SHT31;54093;50.014;19.984;2023-04-09T09:35:58;12.54;62.09
67165;SHT31;54093;50.014;19.984;2023-04-09T09:45:18;12.58;63.57
67165;SHT31;54093;50.014;19.984;2023-04-09T09:54:41;12.31;59.24
67165;SHT31;54093;50.014;19.984;2023-04-09T10:04:04;12.71;62.30
67165;SHT31;54093;50.014;19.984;2023-04-09T10:13:34;14.05;61.68
67165;SHT31;54093;50.014;19.984;2023-04-09T10:22:57;15.08;55.60
67165;SHT31;54093;50.014;19.984;2023-04-09T10:32:22;14.25;57.54
67165;SHT31;54093;50.014;19.984;2023-04-09T10:41:47;13.81;57.79
67165;SHT31;54093;50.014;19.984;2023-04-09T10:51:18;13.28;58.71
67165;SHT31;54093;50.014;19.984;2023-04-09T11:00:41;12.95;59.81
67165;SHT31;54093;50.014;19.984;2023-04-09T11:10:03;12.64;60.75
67165;SHT31;54093;50.014;19.984;2023-04-09T11:19:24;12.49;61.09
67165;SHT31;54093;50.014;19.984;2023-04-09T11:28:45;12.41;59.73
67165;SHT31;54093;50.014;19.984;2023-04-09T11:38:08;12.36;59.65
67165;SHT31;54093;50.014;19.984;2023-04-09T11:47:30;12.41;60.03
67165;SHT31;54093;50.014;19.984;2023-04-09T11:56:51;12.49;60.12
67165;SHT31;54093;50.014;19.984;2023-04-09T12:06:19;12.67;59.69
67165;SHT31;54093;50.014;19.984;2023-04-09T12:15:41;12.64;60.95
67165;SHT31;54093;50.014;19.984;2023-04-09T12:25:03;12.82;61.58
67165;SHT31;54093;50.014;19.984;2023-04-09T12:34:24;12.79;60.71
67165;SHT31;54093;50.014;19.984;2023-04-09T12:43:46;12.62;57.82
67165;SHT31;54093;50.014;19.984;2023-04-09T12:53:08;12.57;60.67
67165;SHT31;54093;50.014;19.984;2023-04-09T13:02:29;12.48;61.39
67165;SHT31;54093;50.014;19.984;2023-04-09T13:11:51;12.48;60.18
67165;SHT31;54093;50.014;19.984;2023-04-09T13:21:12;12.51;59.48
67165;SHT31;54093;50.014;19.984;2023-04-09T13:30:38;12.61;59.37
67165;SHT31;54093;50.014;19.984;2023-04-09T13:39:58;12.92;59.79
67165;SHT31;54093;50.014;19.984;2023-04-09T13:49:19;13.10;57.71
67165;SHT31;54093;50.014;19.984;2023-04-09T13:58:40;13.13;56.92
67165;SHT31;54093;50.014;19.984;2023-04-09T14:08:02;13.24;57.18
67165;SHT31;54093;50.014;19.984;2023-04-09T14:17:23;13.30;51.76
67165;SHT31;54093;50.014;19.984;2023-04-09T14:26:44;13.24;52.85
67165;SHT31;54093;50.014;19.984;2023-04-09T14:36:06;13.10;53.30
67165;SHT31;54093;50.014;19.984;2023-04-09T14:45:27;12.93;52.94
67165;SHT31;54093;50.014;19.984;2023-04-09T14:54:48;12.81;54.07
67165;SHT31;54093;50.014;19.984;2023-04-09T15:04:09;12.72;57.36
67165;SHT31;54093;50.014;19.984;2023-04-09T15:13:30;12.72;56.66
67165;SHT31;54093;50.014;19.984;2023-04-09T15:22:50;12.62;56.92
67165;SHT31;54093;50.014;19.984;2023-04-09T15:32:11;12.40;57.12
67165;SHT31;54093;50.014;19.984;2023-04-09T15:41:32;12.33;58.32
67165;SHT31;54093;50.014;19.984;2023-04-09T15:50:54;12.23;58.67
67165;SHT31;54093;50.014;19.984;2023-04-09T16:00:14;12.18;59.94
67165;SHT31;54093;50.014;19.984;2023-04-09T16:09:36;12.13;59.38
67165;SHT31;54093;50.014;19.984;2023-04-09T16:18:56;12.00;60.63
67165;SHT31;54093;50.014;19.984;2023-04-09T16:28:18;11.82;60.94
67165;SHT31;54093;50.014;19.984;2023-04-09T16:37:41;11.70;61.84
67165;SHT31;54093;50.014;19.984;2023-04-09T16:47:03;11.62;62.63
67165;SHT31;54093;50.014;19.984;2023-04-09T16:56:24;11.52;63.40
67165;SHT31;54093;50.014;19.984;2023-04-09T17:05:45;11.43;64.64
67165;SHT31;54093;50.014;19.984;2023-04-09T17:15:10;11.35;65.91
67165;SHT31;54093;50.014;19.984;2023-04-09T17:24:31;11.28;66.86
67165;SHT31;54093;50.014;19.984;2023-04-09T17:33:56;11.06;68.18
67165;SHT31;54093;50.014;19.984;2023-04-09T17:43:17;10.91;68.32
67165;SHT31;54093;50.014;19.984;2023-04-09T17:52:38;10.74;69.26
67165;SHT31;54093;50.014;19.984;2023-04-09T18:02:00;10.46;70.75
67165;SHT31;54093;50.014;19.984;2023-04-09T18:11:22;10.28;71.01
67165;SHT31;54093;50.014;19.984;2023-04-09T18:20:43;10.26;70.70
67165;SHT31;54093;50.014;19.984;2023-04-09T18:30:04;9.99;71.44
67165;SHT31;54093;50.014;19.984;2023-04-09T18:39:25;9.83;71.66
67165;SHT31;54093;50.014;19.984;2023-04-09T18:48:47;9.83;71.60
67165;SHT31;54093;50.014;19.984;2023-04-09T18:58:08;9.71;72.14
67165;SHT31;54093;50.014;19.984;2023-04-09T19:07:32;9.51;72.43
67165;SHT31;54093;50.014;19.984;2023-04-09T19:16:53;9.42;72.51
67165;SHT31;54093;50.014;19.984;2023-04-09T19:26:14;9.44;72.36
67165;SHT31;54093;50.014;19.984;2023-04-09T19:35:35;9.25;73.03
67165;SHT31;54093;50.014;19.984;2023-04-09T19:45:00;9.14;73.43
67165;SHT31;54093;50.014;19.984;2023-04-09T19:54:21;9.04;73.67
67165;SHT31;54093;50.014;19.984;2023-04-09T20:03:42;8.99;73.57
67165;SHT31;54093;50.014;19.984;2023-04-09T20:13:03;8.85;73.73
67165;SHT31;54093;50.014;19.984;2023-04-09T20:22:25;8.77;73.88
67165;SHT31;54093;50.014;19.984;2023-04-09T20:31:46;8.63;74.33
67165;SHT31;54093;50.014;19.984;2023-04-09T20:41:07;8.65;73.72
67165;SHT31;54093;50.014;19.984;2023-04-09T20:50:28;8.51;73.79
67165;SHT31;54093;50.014;19.984;2023-04-09T20:59:50;8.30;74.90
67165;SHT31;54093;50.014;19.984;2023-04-09T21:09:15;8.40;74.06
67165;SHT31;54093;50.014;19.984;2023-04-09T21:18:36;8.17;74.82
67165;SHT31;54093;50.014;19.984;2023-04-09T21:27:57;8.09;74.38
67165;SHT31;54093;50.014;19.984;2023-04-09T21:37:17;7.86;75.37
67165;SHT31;54093;50.014;19.984;2023-04-09T21:46:40;7.91;75.32
67165;SHT31;54093;50.014;19.984;2023-04-09T21:56:01;7.91;75.48
67165;SHT31;54093;50.014;19.984;2023-04-09T22:05:22;7.91;74.91
67165;SHT31;54093;50.014;19.984;2023-04-09T22:14:42;7.74;75.58
67165;SHT31;54093;50.014;19.984;2023-04-09T22:24:05;7.57;75.97
67165;SHT31;54093;50.014;19.984;2023-04-09T22:33:27;7.47;75.88
67165;SHT31;54093;50.014;19.984;2023-04-09T22:42:48;7.43;75.93
67165;SHT31;54093;50.014;19.984;2023-04-09T22:52:09;7.43;75.64
67165;SHT31;54093;50.014;19.984;2023-04-09T23:01:30;7.47;75.68
67165;SHT31;54093;50.014;19.984;2023-04-09T23:10:51;7.44;76.04
67165;SHT31;54093;50.014;19.984;2023-04-09T23:20:13;7.35;76.23
67165;SHT31;54093;50.014;19.984;2023-04-09T23:29:35;7.30;76.67
67165;SHT31;54093;50.014;19.984;2023-04-09T23:38:55;7.13;77.25
67165;SHT31;54093;50.014;19.984;2023-04-09T23:48:17;7.09;77.94
67165;SHT31;54093;50.014;19.984;2023-04-09T23:57:38;7.06;78.41
